createdAt,value
2023-02-09T00:00:31.143Z,81.12
2023-02-09T00:01:31.177Z,81.43
2023-02-09T00:02:31.160Z,81.43
2023-02-09T00:03:31.186Z,81.33
2023-02-09T00:04:31.092Z,81.33
2023-02-09T00:05:31.251Z,81.33
2023-02-09T00:06:31.074Z,81.43
2023-02-09T00:07:31.066Z,81.43
2023-02-09T00:08:31.068Z,80.80
2023-02-09T00:09:31.075Z,80.69
2023-02-09T00:10:31.037Z,80.80
2023-02-09T00:11:31.065Z,80.69
2023-02-09T00:12:31.032Z,80.69
2023-02-09T00:13:31.001Z,81.05
2023-02-09T00:14:30.995Z,81.01
2023-02-09T00:15:30.990Z,80.91
2023-02-09T00:16:31.175Z,80.80
2023-02-09T00:17:31.038Z,80.80
2023-02-09T00:18:30.943Z,80.94
2023-02-09T00:19:33.175Z,80.91
2023-02-09T00:20:30.922Z,80.94
2023-02-09T00:21:30.924Z,80.80
2023-02-09T00:22:30.906Z,80.83
2023-02-09T00:23:30.968Z,80.80
2023-02-09T00:24:30.885Z,81.05
2023-02-09T00:25:30.870Z,80.91
2023-02-09T00:26:30.864Z,80.94
2023-02-09T00:27:30.865Z,80.62
2023-02-09T00:28:30.913Z,81.15
2023-02-09T00:29:30.863Z,80.94
2023-02-09T00:30:30.870Z,80.94
2023-02-09T00:31:30.902Z,80.94
2023-02-09T00:32:30.810Z,81.05
2023-02-09T00:33:30.828Z,81.05
2023-02-09T00:34:30.776Z,81.15
2023-02-09T00:35:30.812Z,81.15
2023-02-09T00:36:30.751Z,80.83
2023-02-09T00:37:30.742Z,80.83
2023-02-09T00:38:30.726Z,80.94
2023-02-09T00:39:30.735Z,80.94
2023-02-09T00:40:30.714Z,80.94
2023-02-09T00:41:30.738Z,81.05
2023-02-09T00:42:30.692Z,81.05
2023-02-09T00:43:30.680Z,81.26
2023-02-09T00:44:30.660Z,81.26
2023-02-09T00:45:30.772Z,81.30
2023-02-09T00:46:30.653Z,81.26
2023-02-09T00:47:30.731Z,81.09
2023-02-09T00:48:30.637Z,81.15
2023-02-09T00:49:30.656Z,81.30
2023-02-09T00:50:30.612Z,80.83
2023-02-09T00:51:30.632Z,81.19
2023-02-09T00:52:30.572Z,81.09
2023-02-09T00:53:30.603Z,80.94
2023-02-09T00:54:30.565Z,80.98
2023-02-09T00:55:30.557Z,81.15
2023-02-09T00:56:30.551Z,80.98
2023-02-09T00:57:30.521Z,81.09
2023-02-09T00:58:30.522Z,80.83
2023-02-09T00:59:30.546Z,80.83
2023-02-09T01:00:30.500Z,80.94
2023-02-09T01:01:30.494Z,80.83
2023-02-09T01:02:30.467Z,80.83
2023-02-09T01:03:30.518Z,81.09
2023-02-09T01:04:30.580Z,81.15
2023-02-09T01:05:30.575Z,81.15
2023-02-09T01:06:30.420Z,81.05
2023-02-09T01:07:30.425Z,81.51
2023-02-09T01:08:30.404Z,80.98
2023-02-09T01:09:30.431Z,81.05
2023-02-09T01:10:30.384Z,81.26
2023-02-09T01:11:30.411Z,81.15
2023-02-09T01:12:30.366Z,81.15
2023-02-09T01:13:30.444Z,81.05
2023-02-09T01:14:30.342Z,81.15
2023-02-09T01:15:30.413Z,81.47
2023-02-09T01:16:30.399Z,81.15
2023-02-09T01:17:30.353Z,81.15
2023-02-09T01:18:30.292Z,81.15
2023-02-09T01:19:30.300Z,81.30
2023-02-09T01:20:30.294Z,80.94
2023-02-09T01:21:30.300Z,81.05
2023-02-09T01:22:30.252Z,81.51
2023-02-09T01:23:30.315Z,81.30
2023-02-09T01:24:30.234Z,81.09
2023-02-09T01:25:30.273Z,81.09
2023-02-09T01:26:30.232Z,81.09
2023-02-09T01:27:30.199Z,81.26
2023-02-09T01:28:30.267Z,81.40
2023-02-09T01:29:30.205Z,81.30
2023-02-09T01:30:30.174Z,81.40
2023-02-09T01:31:30.358Z,81.30
2023-02-09T01:32:30.142Z,81.30
2023-02-09T01:33:30.128Z,81.09
2023-02-09T01:34:30.115Z,81.09
2023-02-09T01:35:32.187Z,81.30
2023-02-09T01:36:30.102Z,81.30
2023-02-09T01:37:30.135Z,81.19
2023-02-09T01:38:30.077Z,81.19
2023-02-09T01:39:30.080Z,81.44
2023-02-09T01:40:30.056Z,81.44
2023-02-09T01:41:30.106Z,81.01
2023-02-09T01:42:30.033Z,81.01
2023-02-09T01:43:30.105Z,81.12
2023-02-09T01:44:30.009Z,80.80
2023-02-09T01:45:30.007Z,81.23
2023-02-09T01:46:30.099Z,81.12
2023-02-09T01:47:30.079Z,81.12
2023-02-09T01:48:29.965Z,81.12
2023-02-09T01:49:29.961Z,81.12
2023-02-09T01:50:29.960Z,81.12
2023-02-09T01:51:29.944Z,81.01
2023-02-09T01:52:29.954Z,81.23
2023-02-09T01:53:29.961Z,81.12
2023-02-09T01:54:29.918Z,81.16
2023-02-09T01:55:29.895Z,81.37
2023-02-09T01:56:29.938Z,81.48
2023-02-09T01:57:29.880Z,81.58
2023-02-09T01:58:29.903Z,81.58
2023-02-09T01:59:29.945Z,81.16
2023-02-09T02:00:29.856Z,81.69
2023-02-09T02:01:29.889Z,81.16
2023-02-09T02:02:29.878Z,81.16
2023-02-09T02:03:29.816Z,81.41
2023-02-09T02:04:29.798Z,81.05
2023-02-09T02:05:29.851Z,80.98
2023-02-09T02:06:29.792Z,80.98
2023-02-09T02:07:29.765Z,81.20
2023-02-09T02:08:29.763Z,81.30
2023-02-09T02:09:29.772Z,81.62
2023-02-09T02:10:29.746Z,81.09
2023-02-09T02:11:29.786Z,81.30
2023-02-09T02:12:29.715Z,80.98
2023-02-09T02:13:29.828Z,80.88
2023-02-09T02:14:29.693Z,80.88
2023-02-09T02:15:29.724Z,80.77
2023-02-09T02:16:29.665Z,80.66
2023-02-09T02:17:29.691Z,81.02
2023-02-09T02:18:29.654Z,81.02
2023-02-09T02:19:29.663Z,80.70
2023-02-09T02:20:29.628Z,80.91
2023-02-09T02:21:29.608Z,80.91
2023-02-09T02:22:29.600Z,80.91
2023-02-09T02:23:29.623Z,80.91
2023-02-09T02:24:29.578Z,80.91
2023-02-09T02:25:29.597Z,81.02
2023-02-09T02:26:29.584Z,81.12
2023-02-09T02:27:29.557Z,81.23
2023-02-09T02:28:29.609Z,81.45
2023-02-09T02:29:29.581Z,81.65
2023-02-09T02:30:29.583Z,81.23
2023-02-09T02:31:29.660Z,81.23
2023-02-09T02:32:29.496Z,81.45
2023-02-09T02:33:29.485Z,81.23
2023-02-09T02:34:29.474Z,81.23
2023-02-09T02:35:29.608Z,81.12
2023-02-09T02:36:29.453Z,81.02
2023-02-09T02:37:29.472Z,81.34
2023-02-09T02:38:29.428Z,81.45
2023-02-09T02:39:29.441Z,81.45
2023-02-09T02:40:29.413Z,81.65
2023-02-09T02:41:29.578Z,81.45
2023-02-09T02:42:29.386Z,81.45
2023-02-09T02:43:29.393Z,81.55
2023-02-09T02:44:29.370Z,81.27
2023-02-09T02:45:29.356Z,81.34
2023-02-09T02:46:29.429Z,81.37
2023-02-09T02:47:29.405Z,81.16
2023-02-09T02:48:29.330Z,81.23
2023-02-09T02:49:29.319Z,80.91
2023-02-09T02:50:29.416Z,81.05
2023-02-09T02:51:29.298Z,81.05
2023-02-09T02:52:29.290Z,81.16
2023-02-09T02:53:29.305Z,80.91
2023-02-09T02:54:29.262Z,81.16
2023-02-09T02:55:29.257Z,81.27
2023-02-09T02:56:29.239Z,81.05
2023-02-09T02:57:29.256Z,81.27
2023-02-09T02:58:29.240Z,81.27
2023-02-09T02:59:29.263Z,81.16
2023-02-09T03:00:29.205Z,80.95
2023-02-09T03:01:29.261Z,80.95
2023-02-09T03:02:29.175Z,80.95
2023-02-09T03:03:29.171Z,80.84
2023-02-09T03:04:29.164Z,80.95
2023-02-09T03:05:29.243Z,81.05
2023-02-09T03:06:29.136Z,81.27
2023-02-09T03:07:29.143Z,80.95
2023-02-09T03:08:29.127Z,81.16
2023-02-09T03:09:29.103Z,81.16
2023-02-09T03:10:29.095Z,81.16
2023-02-09T03:11:29.096Z,80.63
2023-02-09T03:12:29.073Z,81.05
2023-02-09T03:13:29.100Z,80.84
2023-02-09T03:14:29.047Z,80.63
2023-02-09T03:15:29.044Z,80.84
2023-02-09T03:16:29.136Z,80.74
2023-02-09T03:17:29.046Z,80.52
2023-02-09T03:18:29.013Z,80.74
2023-02-09T03:19:29.045Z,80.74
2023-02-09T03:20:28.991Z,80.74
2023-02-09T03:21:28.978Z,80.74
2023-02-09T03:22:28.969Z,80.84
2023-02-09T03:23:28.998Z,80.74
2023-02-09T03:24:28.949Z,80.74
2023-02-09T03:25:28.962Z,80.84
2023-02-09T03:26:28.927Z,80.74
2023-02-09T03:27:28.928Z,80.52
2023-02-09T03:28:28.986Z,80.95
2023-02-09T03:29:28.979Z,80.77
2023-02-09T03:30:28.908Z,80.74
2023-02-09T03:31:29.059Z,80.88
2023-02-09T03:32:28.864Z,80.77
2023-02-09T03:33:28.889Z,80.66
2023-02-09T03:34:28.840Z,80.66
2023-02-09T03:35:28.864Z,81.09
2023-02-09T03:36:28.819Z,80.88
2023-02-09T03:37:28.811Z,81.09
2023-02-09T03:38:28.801Z,80.99
2023-02-09T03:39:28.792Z,81.09
2023-02-09T03:40:28.803Z,80.99
2023-02-09T03:41:28.785Z,80.88
2023-02-09T03:42:28.754Z,80.77
2023-02-09T03:43:28.737Z,80.88
2023-02-09T03:44:28.743Z,80.88
2023-02-09T03:45:28.802Z,80.77
2023-02-09T03:46:28.768Z,80.88
2023-02-09T03:47:28.710Z,80.88
2023-02-09T03:48:28.719Z,80.70
2023-02-09T03:49:28.676Z,81.09
2023-02-09T03:50:28.667Z,81.09
2023-02-09T03:51:28.659Z,81.30
2023-02-09T03:52:28.652Z,81.30
2023-02-09T03:53:28.683Z,81.09
2023-02-09T03:54:28.621Z,81.09
2023-02-09T03:55:28.612Z,81.52
2023-02-09T03:56:28.602Z,81.30
2023-02-09T03:57:28.590Z,81.84
2023-02-09T03:58:28.608Z,81.52
2023-02-09T03:59:28.678Z,81.30
2023-02-09T04:00:28.639Z,81.30
2023-02-09T04:01:28.570Z,81.30
2023-02-09T04:02:28.583Z,81.30
2023-02-09T04:03:28.524Z,81.30
2023-02-09T04:04:28.515Z,81.62
2023-02-09T04:05:28.563Z,81.73
2023-02-09T04:06:28.492Z,81.30
2023-02-09T04:07:28.475Z,81.30
2023-02-09T04:08:28.471Z,81.52
2023-02-09T04:09:28.551Z,81.20
2023-02-09T04:10:28.469Z,81.23
2023-02-09T04:11:28.479Z,81.62
2023-02-09T04:12:28.427Z,81.20
2023-02-09T04:13:28.420Z,81.34
2023-02-09T04:14:28.409Z,81.34
2023-02-09T04:15:28.410Z,81.30
2023-02-09T04:16:28.540Z,81.34
2023-02-09T04:17:28.508Z,81.34
2023-02-09T04:18:28.358Z,81.45
2023-02-09T04:19:28.359Z,81.87
2023-02-09T04:20:28.339Z,81.34
2023-02-09T04:21:28.332Z,81.23
2023-02-09T04:22:28.322Z,81.34
2023-02-09T04:23:28.360Z,81.34
2023-02-09T04:24:28.298Z,81.23
2023-02-09T04:25:28.284Z,81.34
2023-02-09T04:26:28.281Z,81.13
2023-02-09T04:27:28.329Z,80.91
2023-02-09T04:28:28.292Z,81.23
2023-02-09T04:29:28.297Z,81.13
2023-02-09T04:30:28.376Z,80.81
2023-02-09T04:31:28.357Z,80.91
2023-02-09T04:32:28.216Z,80.91
2023-02-09T04:33:28.226Z,80.60
2023-02-09T04:34:28.338Z,80.91
2023-02-09T04:35:28.233Z,80.85
2023-02-09T04:36:28.177Z,80.91
2023-02-09T04:37:28.165Z,80.81
2023-02-09T04:38:28.149Z,80.49
2023-02-09T04:39:28.147Z,80.38
2023-02-09T04:40:28.126Z,80.49
2023-02-09T04:41:28.136Z,80.70
2023-02-09T04:42:28.106Z,80.52
2023-02-09T04:43:28.099Z,80.21
2023-02-09T04:44:28.102Z,80.63
2023-02-09T04:45:28.108Z,80.32
2023-02-09T04:46:28.068Z,80.63
2023-02-09T04:47:28.149Z,80.74
2023-02-09T04:48:28.044Z,80.74
2023-02-09T04:49:28.066Z,80.42
2023-02-09T04:50:28.025Z,80.67
2023-02-09T04:51:28.043Z,80.67
2023-02-09T04:52:28.004Z,80.46
2023-02-09T04:53:28.047Z,80.88
2023-02-09T04:54:28.000Z,80.88
2023-02-09T04:55:27.971Z,80.88
2023-02-09T04:56:27.959Z,81.09
2023-02-09T04:57:27.952Z,81.20
2023-02-09T04:58:27.959Z,80.99
2023-02-09T04:59:28.013Z,81.09
2023-02-09T05:00:27.919Z,81.41
2023-02-09T05:01:27.955Z,81.09
2023-02-09T05:02:27.893Z,81.84
2023-02-09T05:03:27.902Z,81.41
2023-02-09T05:04:27.875Z,81.30
2023-02-09T05:05:27.900Z,81.52
2023-02-09T05:06:27.886Z,81.63
2023-02-09T05:07:27.847Z,81.73
2023-02-09T05:08:27.836Z,81.41
2023-02-09T05:09:27.823Z,81.27
2023-02-09T05:10:27.805Z,81.38
2023-02-09T05:11:27.870Z,81.41
2023-02-09T05:12:27.794Z,81.41
2023-02-09T05:13:27.848Z,81.70
2023-02-09T05:14:27.808Z,81.27
2023-02-09T05:15:27.781Z,81.48
2023-02-09T05:16:27.882Z,81.20
2023-02-09T05:17:27.836Z,81.09
2023-02-09T05:18:27.728Z,81.30
2023-02-09T05:19:27.721Z,81.20
2023-02-09T05:20:27.704Z,81.09
2023-02-09T05:21:27.754Z,80.88
2023-02-09T05:22:27.684Z,80.99
2023-02-09T05:23:27.764Z,80.99
2023-02-09T05:24:27.660Z,81.09
2023-02-09T05:25:27.687Z,81.30
2023-02-09T05:26:27.668Z,81.20
2023-02-09T05:27:27.636Z,81.13
2023-02-09T05:28:27.721Z,81.30
2023-02-09T05:29:27.644Z,81.20
2023-02-09T05:30:27.603Z,81.09
2023-02-09T05:31:27.753Z,81.09
2023-02-09T05:32:27.636Z,81.41
2023-02-09T05:33:27.586Z,81.52
2023-02-09T05:34:27.560Z,81.77
2023-02-09T05:35:27.630Z,81.52
2023-02-09T05:36:27.542Z,81.52
2023-02-09T05:37:27.556Z,81.67
2023-02-09T05:38:27.513Z,81.20
2023-02-09T05:39:27.503Z,81.20
2023-02-09T05:40:27.489Z,81.24
2023-02-09T05:41:27.565Z,81.63
2023-02-09T05:42:27.503Z,81.52
2023-02-09T05:43:27.456Z,81.77
2023-02-09T05:44:27.454Z,81.98
2023-02-09T05:45:27.441Z,81.45
2023-02-09T05:46:27.513Z,81.56
2023-02-09T05:47:27.455Z,81.63
2023-02-09T05:48:27.423Z,81.34
2023-02-09T05:49:27.405Z,81.34
2023-02-09T05:50:27.406Z,81.09
2023-02-09T05:51:27.377Z,80.92
2023-02-09T05:52:27.366Z,80.92
2023-02-09T05:53:27.423Z,80.92
2023-02-09T05:54:27.344Z,80.60
2023-02-09T05:55:27.331Z,80.38
2023-02-09T05:56:27.331Z,80.49
2023-02-09T05:57:27.310Z,80.74
2023-02-09T05:58:27.303Z,80.71
2023-02-09T05:59:27.322Z,80.60
2023-02-09T06:00:27.268Z,80.53
2023-02-09T06:01:27.261Z,80.49
2023-02-09T06:02:27.314Z,80.38
2023-02-09T06:03:27.306Z,80.49
2023-02-09T06:04:27.227Z,80.49
2023-02-09T06:05:27.275Z,80.60
2023-02-09T06:06:27.207Z,80.71
2023-02-09T06:07:27.195Z,80.49
2023-02-09T06:08:27.254Z,80.71
2023-02-09T06:09:27.197Z,80.49
2023-02-09T06:10:27.172Z,80.49
2023-02-09T06:11:27.188Z,81.13
2023-02-09T06:12:27.163Z,80.92
2023-02-09T06:13:27.135Z,80.92
2023-02-09T06:14:27.195Z,81.13
2023-02-09T06:15:27.143Z,81.13
2023-02-09T06:16:27.105Z,80.92
2023-02-09T06:17:27.150Z,80.81
2023-02-09T06:18:27.081Z,80.92
2023-02-09T06:19:27.092Z,80.71
2023-02-09T06:20:27.095Z,80.71
2023-02-09T06:21:27.049Z,80.60
2023-02-09T06:22:27.036Z,80.60
2023-02-09T06:23:27.061Z,80.49
2023-02-09T06:24:27.080Z,80.71
2023-02-09T06:25:27.040Z,80.81
2023-02-09T06:26:26.990Z,80.67
2023-02-09T06:27:27.039Z,80.77
2023-02-09T06:28:27.008Z,80.60
2023-02-09T06:29:26.994Z,80.46
2023-02-09T06:30:26.960Z,80.35
2023-02-09T06:31:27.115Z,80.46
2023-02-09T06:32:26.943Z,80.67
2023-02-09T06:33:26.912Z,80.56
2023-02-09T06:34:27.009Z,80.67
2023-02-09T06:35:26.980Z,80.52
2023-02-09T06:36:26.903Z,80.74
2023-02-09T06:37:26.888Z,80.32
2023-02-09T06:38:26.866Z,80.32
2023-02-09T06:39:26.929Z,80.28
2023-02-09T06:40:26.851Z,80.17
2023-02-09T06:41:26.907Z,80.17
2023-02-09T06:42:29.035Z,80.28
2023-02-09T06:43:26.896Z,80.28
2023-02-09T06:44:26.806Z,80.07
2023-02-09T06:45:26.790Z,80.07
2023-02-09T06:46:26.916Z,80.24
2023-02-09T06:47:26.790Z,80.28
2023-02-09T06:48:26.759Z,80.03
2023-02-09T06:49:27.354Z,80.13
2023-02-09T06:50:26.854Z,80.03
2023-02-09T06:51:26.740Z,79.99
2023-02-09T06:52:26.769Z,80.21
2023-02-09T06:53:26.801Z,80.10
2023-02-09T06:54:26.716Z,80.10
2023-02-09T06:55:26.710Z,80.10
2023-02-09T06:56:26.688Z,80.21
2023-02-09T06:57:26.828Z,80.27
2023-02-09T06:58:26.683Z,79.85
2023-02-09T06:59:26.700Z,79.96
2023-02-09T07:00:26.634Z,80.07
2023-02-09T07:01:26.675Z,80.07
2023-02-09T07:02:26.677Z,80.17
2023-02-09T07:03:26.669Z,80.07
2023-02-09T07:04:26.590Z,80.03
2023-02-09T07:05:26.614Z,80.03
2023-02-09T07:06:26.586Z,80.13
2023-02-09T07:07:26.596Z,80.03
2023-02-09T07:08:26.547Z,79.82
2023-02-09T07:09:26.564Z,79.92
2023-02-09T07:10:26.543Z,79.82
2023-02-09T07:11:26.606Z,79.99
2023-02-09T07:12:26.659Z,79.99
2023-02-09T07:13:26.520Z,80.10
2023-02-09T07:14:26.557Z,79.78
2023-02-09T07:15:26.478Z,79.88
2023-02-09T07:16:26.538Z,79.99
2023-02-09T07:17:26.554Z,80.10
2023-02-09T07:18:26.480Z,80.06
2023-02-09T07:19:26.450Z,79.99
2023-02-09T07:20:26.418Z,80.17
2023-02-09T07:21:26.420Z,80.06
2023-02-09T07:22:26.438Z,80.06
2023-02-09T07:23:26.464Z,80.17
2023-02-09T07:24:26.457Z,80.27
2023-02-09T07:25:27.383Z,80.27
2023-02-09T07:26:26.352Z,80.27
2023-02-09T07:27:26.364Z,80.17
2023-02-09T07:28:26.455Z,80.17
2023-02-09T07:29:26.378Z,80.13
2023-02-09T07:30:26.311Z,80.06
2023-02-09T07:31:27.528Z,80.13
2023-02-09T07:32:26.296Z,79.82
2023-02-09T07:33:26.280Z,79.82
2023-02-09T07:34:26.280Z,80.02
2023-02-09T07:35:26.878Z,80.02
2023-02-09T07:36:26.245Z,80.34
2023-02-09T07:37:26.249Z,80.10
2023-02-09T07:38:26.237Z,79.99
2023-02-09T07:39:26.206Z,80.10
2023-02-09T07:40:26.201Z,79.99
2023-02-09T07:41:26.238Z,79.96
2023-02-09T07:42:26.175Z,79.96
2023-02-09T07:43:26.169Z,80.06
2023-02-09T07:44:26.149Z,80.06
2023-02-09T07:45:26.190Z,79.96
2023-02-09T07:46:26.173Z,80.06
2023-02-09T07:47:26.366Z,79.96
2023-02-09T07:48:26.111Z,80.13
2023-02-09T07:49:26.123Z,79.96
2023-02-09T07:50:26.092Z,79.92
2023-02-09T07:51:26.118Z,79.99
2023-02-09T07:52:26.102Z,79.92
2023-02-09T07:53:26.106Z,79.88
2023-02-09T07:54:26.047Z,79.77
2023-02-09T07:55:26.032Z,79.67
2023-02-09T07:56:26.028Z,79.88
2023-02-09T07:57:26.039Z,79.85
2023-02-09T07:58:26.003Z,79.85
2023-02-09T07:59:26.042Z,79.63
2023-02-09T08:00:25.977Z,79.63
2023-02-09T08:01:26.023Z,79.81
2023-02-09T08:02:25.978Z,79.71
2023-02-09T08:03:25.946Z,79.60
2023-02-09T08:04:25.935Z,79.71
2023-02-09T08:05:26.023Z,79.60
2023-02-09T08:06:36.236Z,79.67
2023-02-09T08:07:26.930Z,79.56
2023-02-09T08:08:25.926Z,79.67
2023-02-09T08:09:25.882Z,79.77
2023-02-09T08:10:26.051Z,79.77
2023-02-09T08:11:25.902Z,79.88
2023-02-09T08:12:25.906Z,79.74
2023-02-09T08:13:25.838Z,79.74
2023-02-09T08:14:25.866Z,79.42
2023-02-09T08:15:25.824Z,79.70
2023-02-09T08:16:25.886Z,79.74
2023-02-09T08:17:25.938Z,79.70
2023-02-09T08:18:25.838Z,79.49
2023-02-09T08:19:25.768Z,79.49
2023-02-09T08:20:25.774Z,79.70
2023-02-09T08:21:26.376Z,79.80
2023-02-09T08:22:25.740Z,79.91
2023-02-09T08:23:25.864Z,79.70
2023-02-09T08:24:25.845Z,79.60
2023-02-09T08:25:25.723Z,79.80
2023-02-09T08:26:25.692Z,79.70
2023-02-09T08:27:25.712Z,79.77
2023-02-09T08:28:41.626Z,79.66
2023-02-09T08:29:26.777Z,79.98
2023-02-09T08:30:26.656Z,79.77
2023-02-09T08:31:25.770Z,79.77
2023-02-09T08:32:25.661Z,79.74
2023-02-09T08:33:25.647Z,79.66
2023-02-09T08:34:25.615Z,79.63
2023-02-09T08:35:25.763Z,79.42
2023-02-09T08:36:25.836Z,79.63
2023-02-09T08:37:25.582Z,79.52
2023-02-09T08:38:25.629Z,79.38
2023-02-09T08:39:25.571Z,79.38
2023-02-09T08:40:25.639Z,79.49
2023-02-09T08:41:25.695Z,79.70
2023-02-09T08:42:25.542Z,79.35
2023-02-09T08:43:32.503Z,79.52
2023-02-09T08:44:25.521Z,79.31
2023-02-09T08:45:25.641Z,79.63
2023-02-09T08:46:25.696Z,79.41
2023-02-09T08:47:25.528Z,79.31
2023-02-09T08:48:25.476Z,79.27
2023-02-09T08:49:33.486Z,79.27
2023-02-09T08:50:25.462Z,79.49
2023-02-09T08:51:25.443Z,79.27
2023-02-09T08:52:25.422Z,79.24
2023-02-09T08:53:25.430Z,79.45
2023-02-09T08:54:25.433Z,79.45
2023-02-09T08:55:25.412Z,79.35
2023-02-09T08:56:25.399Z,79.35
2023-02-09T08:57:34.884Z,79.24
2023-02-09T08:58:26.421Z,79.41
2023-02-09T08:59:25.345Z,79.21
2023-02-09T09:00:25.361Z,79.52
2023-02-09T09:01:25.410Z,79.21
2023-02-09T09:02:25.315Z,79.27
2023-02-09T09:03:25.340Z,79.27
2023-02-09T09:04:25.323Z,79.27
2023-02-09T09:05:26.298Z,79.24
2023-02-09T09:06:25.288Z,79.34
2023-02-09T09:07:25.249Z,79.24
2023-02-09T09:08:25.243Z,79.13
2023-02-09T09:09:25.236Z,79.20
2023-02-09T09:10:25.412Z,79.55
2023-02-09T09:11:25.951Z,79.41
2023-02-09T09:12:25.938Z,79.41
2023-02-09T09:13:25.206Z,79.52
2023-02-09T09:14:25.174Z,79.16
2023-02-09T09:15:25.167Z,79.27
2023-02-09T09:16:25.611Z,79.48
2023-02-09T09:17:25.146Z,79.58
2023-02-09T09:18:25.956Z,79.58
2023-02-09T09:19:25.161Z,79.34
2023-02-09T09:20:25.124Z,79.13
2023-02-09T09:21:25.144Z,79.55
2023-02-09T09:22:25.152Z,79.44
2023-02-09T09:23:25.090Z,79.41
2023-02-09T09:24:25.973Z,79.41
2023-02-09T09:25:25.067Z,79.61
2023-02-09T09:26:25.052Z,79.41
2023-02-09T09:27:26.962Z,79.47
2023-02-09T09:28:25.088Z,79.27
2023-02-09T09:29:25.014Z,79.47
2023-02-09T09:30:25.003Z,79.47
2023-02-09T09:31:25.191Z,79.37
2023-02-09T09:32:25.255Z,79.33
2023-02-09T09:33:24.968Z,79.44
2023-02-09T09:34:25.021Z,79.44
2023-02-09T09:35:24.954Z,79.23
2023-02-09T09:36:24.961Z,79.40
2023-02-09T09:37:25.028Z,79.72
2023-02-09T09:38:24.911Z,79.72
2023-02-09T09:39:24.927Z,79.40
2023-02-09T09:40:24.934Z,79.61
2023-02-09T09:41:24.935Z,79.72
2023-02-09T09:42:24.874Z,79.68
2023-02-09T09:43:24.982Z,79.58
2023-02-09T09:44:24.851Z,79.75
2023-02-09T09:45:24.838Z,79.99
2023-02-09T09:46:25.014Z,79.54
2023-02-09T09:47:24.818Z,79.75
2023-02-09T09:48:24.866Z,79.54
2023-02-09T09:49:24.867Z,79.64
2023-02-09T09:50:26.307Z,79.44
2023-02-09T09:51:24.767Z,79.61
2023-02-09T09:52:24.908Z,79.44
2023-02-09T09:53:24.797Z,79.44
2023-02-09T09:54:24.773Z,79.54
2023-02-09T09:55:24.751Z,79.50
2023-02-09T09:56:27.057Z,79.54
2023-02-09T09:57:24.714Z,79.08
2023-02-09T09:58:25.068Z,79.08
2023-02-09T09:59:24.677Z,79.08
2023-02-09T10:00:24.664Z,79.50
2023-02-09T10:01:24.712Z,79.08
2023-02-09T10:02:24.674Z,79.19
2023-02-09T10:03:24.696Z,79.26
2023-02-09T10:04:24.715Z,79.26
2023-02-09T10:05:24.647Z,79.05
2023-02-09T10:06:24.655Z,79.15
2023-02-09T10:07:24.593Z,79.19
2023-02-09T10:08:24.608Z,79.26
2023-02-09T10:09:24.633Z,79.15
2023-02-09T10:10:24.633Z,79.08
2023-02-09T10:11:24.548Z,79.15
2023-02-09T10:12:24.538Z,79.26
2023-02-09T10:13:24.526Z,79.26
2023-02-09T10:14:24.513Z,79.47
2023-02-09T10:15:24.569Z,79.47
2023-02-09T10:16:24.539Z,79.47
2023-02-09T10:17:24.484Z,79.47
2023-02-09T10:18:24.471Z,79.64
2023-02-09T10:19:24.458Z,79.33
2023-02-09T10:20:24.488Z,79.33
2023-02-09T10:21:25.474Z,79.53
2023-02-09T10:22:24.429Z,79.50
2023-02-09T10:23:24.433Z,79.50
2023-02-09T10:24:24.425Z,79.39
2023-02-09T10:25:24.420Z,79.50
2023-02-09T10:26:24.381Z,79.50
2023-02-09T10:27:24.429Z,79.39
2023-02-09T10:28:24.483Z,79.25
2023-02-09T10:29:24.354Z,79.36
2023-02-09T10:30:24.342Z,79.67
2023-02-09T10:31:24.452Z,79.46
2023-02-09T10:32:24.321Z,79.46
2023-02-09T10:33:24.428Z,79.57
2023-02-09T10:34:24.313Z,79.25
2023-02-09T10:35:24.285Z,79.84
2023-02-09T10:36:24.278Z,79.53
2023-02-09T10:37:24.288Z,79.94
2023-02-09T10:38:24.247Z,79.70
2023-02-09T10:39:24.291Z,79.70
2023-02-09T10:40:24.948Z,79.70
2023-02-09T10:41:24.246Z,79.60
2023-02-09T10:42:24.403Z,79.60
2023-02-09T10:43:24.190Z,79.49
2023-02-09T10:44:24.260Z,79.49
2023-02-09T10:45:24.229Z,79.56
2023-02-09T10:46:24.371Z,79.77
2023-02-09T10:47:24.151Z,79.77
2023-02-09T10:48:24.134Z,79.98
2023-02-09T10:49:24.181Z,79.66
2023-02-09T10:50:24.118Z,79.98
2023-02-09T10:51:24.142Z,79.46
2023-02-09T10:52:24.104Z,79.42
2023-02-09T10:53:24.092Z,79.63
2023-02-09T10:54:24.074Z,79.52
2023-02-09T10:55:24.075Z,79.94
2023-02-09T10:56:24.125Z,79.94
2023-02-09T10:57:24.178Z,79.63
2023-02-09T10:58:24.027Z,79.69
2023-02-09T10:59:24.097Z,79.94
2023-02-09T11:00:24.005Z,79.69
2023-02-09T11:01:24.097Z,79.69
2023-02-09T11:02:24.013Z,79.69
2023-02-09T11:03:24.134Z,79.49
2023-02-09T11:04:24.044Z,79.55
2023-02-09T11:05:23.984Z,79.59
2023-02-09T11:06:23.946Z,79.69
2023-02-09T11:07:23.939Z,79.59
2023-02-09T11:08:23.925Z,79.69
2023-02-09T11:09:24.040Z,79.80
2023-02-09T11:10:23.927Z,79.55
2023-02-09T11:11:23.890Z,79.45
2023-02-09T11:12:24.458Z,79.66
2023-02-09T11:13:23.888Z,79.45
2023-02-09T11:14:23.856Z,79.45
2023-02-09T11:15:23.887Z,79.97
2023-02-09T11:16:23.897Z,79.97
2023-02-09T11:17:23.815Z,80.08
2023-02-09T11:18:23.832Z,79.97
2023-02-09T11:19:23.796Z,79.87
2023-02-09T11:20:23.786Z,79.97
2023-02-09T11:21:23.838Z,79.87
2023-02-09T11:22:28.984Z,79.76
2023-02-09T11:23:24.791Z,79.62
2023-02-09T11:24:26.194Z,79.55
2023-02-09T11:25:23.752Z,79.55
2023-02-09T11:26:23.728Z,79.83
2023-02-09T11:27:23.930Z,80.04
2023-02-09T11:28:23.724Z,79.83
2023-02-09T11:29:23.726Z,79.76
2023-02-09T11:30:23.780Z,80.29
2023-02-09T11:31:23.870Z,80.35
2023-02-09T11:32:23.654Z,80.25
2023-02-09T11:33:23.653Z,80.25
2023-02-09T11:34:26.179Z,80.35
2023-02-09T11:35:23.623Z,80.35
2023-02-09T11:36:23.621Z,80.46
2023-02-09T11:37:23.623Z,80.35
2023-02-09T11:38:23.623Z,80.46
2023-02-09T11:39:23.906Z,80.15
2023-02-09T11:40:23.572Z,80.77
2023-02-09T11:41:23.564Z,81.04
2023-02-09T11:42:23.542Z,81.08
2023-02-09T11:43:23.572Z,81.18
2023-02-09T11:44:23.529Z,81.29
2023-02-09T11:45:23.701Z,81.25
2023-02-09T11:46:23.566Z,81.35
2023-02-09T11:47:23.496Z,81.08
2023-02-09T11:48:23.501Z,81.15
2023-02-09T11:49:23.466Z,81.25
2023-02-09T11:50:23.452Z,81.35
2023-02-09T11:51:23.514Z,81.35
2023-02-09T11:52:23.512Z,80.52
2023-02-09T11:53:23.424Z,81.15
2023-02-09T11:54:23.484Z,81.04
2023-02-09T11:55:23.403Z,80.73
2023-02-09T11:56:23.549Z,80.80
2023-02-09T11:57:23.451Z,80.07
2023-02-09T11:58:23.368Z,80.45
2023-02-09T11:59:23.354Z,80.69
2023-02-09T12:00:23.338Z,80.97
2023-02-09T12:01:23.377Z,81.07
2023-02-09T12:02:23.878Z,80.76
2023-02-09T12:03:23.342Z,80.87
2023-02-09T12:04:23.296Z,81.07
2023-02-09T12:05:23.378Z,81.07
2023-02-09T12:06:23.401Z,81.04
2023-02-09T12:07:23.349Z,81.35
2023-02-09T12:08:23.314Z,80.83
2023-02-09T12:09:23.313Z,80.37
2023-02-09T12:10:23.288Z,80.16
2023-02-09T12:11:23.221Z,80.16
2023-02-09T12:12:23.330Z,79.75
2023-02-09T12:13:23.195Z,80.16
2023-02-09T12:14:23.192Z,79.96
2023-02-09T12:15:23.322Z,80.02
2023-02-09T12:16:23.267Z,80.02
2023-02-09T12:17:23.181Z,79.92
2023-02-09T12:18:23.140Z,79.61
2023-02-09T12:19:23.129Z,79.41
2023-02-09T12:20:23.132Z,79.58
2023-02-09T12:21:23.138Z,79.47
2023-02-09T12:22:23.120Z,79.47
2023-02-09T12:23:23.081Z,79.27
2023-02-09T12:24:23.073Z,79.37
2023-02-09T12:25:23.067Z,79.37
2023-02-09T12:26:23.051Z,79.47
2023-02-09T12:27:23.052Z,79.47
2023-02-09T12:28:23.195Z,79.64
2023-02-09T12:29:23.010Z,79.37
2023-02-09T12:30:22.998Z,79.58
2023-02-09T12:31:23.067Z,79.54
2023-02-09T12:32:23.057Z,79.37
2023-02-09T12:33:23.056Z,79.64
2023-02-09T12:34:22.951Z,79.64
2023-02-09T12:35:22.963Z,79.64
2023-02-09T12:36:22.943Z,79.54
2023-02-09T12:37:29.574Z,79.78
2023-02-09T12:38:24.266Z,79.64
2023-02-09T12:39:24.180Z,79.33
2023-02-09T12:40:22.897Z,79.64
2023-02-09T12:41:22.874Z,79.74
2023-02-09T12:42:22.869Z,79.54
2023-02-09T12:43:22.865Z,79.64
2023-02-09T12:44:22.886Z,79.74
2023-02-09T12:45:22.837Z,79.68
2023-02-09T12:46:23.017Z,79.23
2023-02-09T12:47:22.811Z,79.23
2023-02-09T12:48:22.817Z,79.74
2023-02-09T12:49:22.812Z,79.16
2023-02-09T12:50:22.792Z,79.74
2023-02-09T12:51:22.773Z,79.74
2023-02-09T12:52:22.755Z,79.33